sensor_id;sensor_type;location;lat;lon;timestamp;P1;durP1;ratioP1;P2;durP2;ratioP2
9729;SDS011;4904;49.152;11.004;2023-05-07T00:00:24;4.13;;;3.10;;
9729;SDS011;4904;49.152;11.004;2023-05-07T00:02:51;3.33;;;2.80;;
9729;SDS011;4904;49.152;11.004;2023-05-07T00:05:18;2.83;;;2.63;;
9729;SDS011;4904;49.152;11.004;2023-05-07T00:07:46;3.03;;;2.67;;
9729;SDS011;4904;49.152;11.004;2023-05-07T00:10:13;4.25;;;2.67;;
9729;SDS011;4904;49.152;11.004;2023-05-07T00:12:40;3.08;;;2.75;;
9729;SDS011;4904;49.152;11.004;2023-05-07T00:15:08;2.88;;;2.55;;
9729;SDS011;4904;49.152;11.004;2023-05-07T00:17:36;3.42;;;2.88;;
9729;SDS011;4904;49.152;11.004;2023-05-07T00:20:03;4.70;;;3.90;;
9729;SDS011;4904;49.152;11.004;2023-05-07T00:22:31;3.65;;;3.35;;
9729;SDS011;4904;49.152;11.004;2023-05-07T00:24:58;3.78;;;3.40;;
9729;SDS011;4904;49.152;11.004;2023-05-07T00:27:25;3.55;;;2.90;;
9729;SDS011;4904;49.152;11.004;2023-05-07T00:29:52;3.63;;;2.83;;
9729;SDS011;4904;49.152;11.004;2023-05-07T00:32:20;3.60;;;3.25;;
9729;SDS011;4904;49.152;11.004;2023-05-07T00:34:47;3.47;;;3.17;;
9729;SDS011;4904;49.152;11.004;2023-05-07T00:37:15;3.58;;;3.15;;
9729;SDS011;4904;49.152;11.004;2023-05-07T00:39:42;3.63;;;3.42;;
9729;SDS011;4904;49.152;11.004;2023-05-07T00:42:09;3.55;;;3.22;;
9729;SDS011;4904;49.152;11.004;2023-05-07T00:44:36;4.28;;;3.80;;
9729;SDS011;4904;49.152;11.004;2023-05-07T00:47:03;3.88;;;3.20;;
9729;SDS011;4904;49.152;11.004;2023-05-07T00:49:35;2.85;;;2.65;;
9729;SDS011;4904;49.152;11.004;2023-05-07T00:52:05;3.30;;;3.00;;
9729;SDS011;4904;49.152;11.004;2023-05-07T00:54:33;3.10;;;2.80;;
9729;SDS011;4904;49.152;11.004;2023-05-07T00:57:01;3.00;;;2.80;;
9729;SDS011;4904;49.152;11.004;2023-05-07T00:59:28;3.47;;;3.17;;
9729;SDS011;4904;49.152;11.004;2023-05-07T01:01:56;3.55;;;3.25;;
9729;SDS011;4904;49.152;11.004;2023-05-07T01:04:23;4.15;;;3.38;;
9729;SDS011;4904;49.152;11.004;2023-05-07T01:06:51;3.60;;;3.22;;
9729;SDS011;4904;49.152;11.004;2023-05-07T01:09:20;5.10;;;3.55;;
9729;SDS011;4904;49.152;11.004;2023-05-07T01:11:48;4.93;;;3.63;;
9729;SDS011;4904;49.152;11.004;2023-05-07T01:14:16;6.45;;;4.20;;
9729;SDS011;4904;49.152;11.004;2023-05-07T01:16:43;4.20;;;3.80;;
9729;SDS011;4904;49.152;11.004;2023-05-07T01:19:11;4.93;;;3.50;;
9729;SDS011;4904;49.152;11.004;2023-05-07T01:21:41;3.35;;;3.05;;
9729;SDS011;4904;49.152;11.004;2023-05-07T01:24:13;4.03;;;3.28;;
9729;SDS011;4904;49.152;11.004;2023-05-07T01:26:41;6.63;;;3.33;;
9729;SDS011;4904;49.152;11.004;2023-05-07T01:29:09;4.07;;;3.28;;
9729;SDS011;4904;49.152;11.004;2023-05-07T01:31:36;3.33;;;3.08;;
9729;SDS011;4904;49.152;11.004;2023-05-07T01:34:05;4.20;;;3.80;;
9729;SDS011;4904;49.152;11.004;2023-05-07T01:36:34;3.70;;;3.40;;
9729;SDS011;4904;49.152;11.004;2023-05-07T01:39:05;5.88;;;3.22;;
9729;SDS011;4904;49.152;11.004;2023-05-07T01:41:34;3.55;;;3.25;;
9729;SDS011;4904;49.152;11.004;2023-05-07T01:44:01;7.57;;;3.38;;
9729;SDS011;4904;49.152;11.004;2023-05-07T01:46:29;3.05;;;2.72;;
9729;SDS011;4904;49.152;11.004;2023-05-07T01:48:58;4.10;;;3.05;;
9729;SDS011;4904;49.152;11.004;2023-05-07T01:54:47;4.38;;;3.17;;
9729;SDS011;4904;49.152;11.004;2023-05-07T01:57:16;3.15;;;2.92;;
9729;SDS011;4904;49.152;11.004;2023-05-07T01:59:42;3.60;;;3.28;;
9729;SDS011;4904;49.152;11.004;2023-05-07T02:02:09;4.00;;;3.25;;
9729;SDS011;4904;49.152;11.004;2023-05-07T02:04:36;4.25;;;3.85;;
9729;SDS011;4904;49.152;11.004;2023-05-07T02:07:03;3.40;;;3.10;;
9729;SDS011;4904;49.152;11.004;2023-05-07T02:09:30;3.38;;;3.10;;
9729;SDS011;4904;49.152;11.004;2023-05-07T02:11:57;3.70;;;3.40;;
9729;SDS011;4904;49.152;11.004;2023-05-07T02:14:25;3.15;;;2.85;;
9729;SDS011;4904;49.152;11.004;2023-05-07T02:16:52;3.17;;;2.88;;
9729;SDS011;4904;49.152;11.004;2023-05-07T02:19:19;3.45;;;3.17;;
9729;SDS011;4904;49.152;11.004;2023-05-07T02:21:46;3.55;;;3.00;;
9729;SDS011;4904;49.152;11.004;2023-05-07T02:24:13;5.45;;;3.03;;
9729;SDS011;4904;49.152;11.004;2023-05-07T02:26:39;4.25;;;3.17;;
9729;SDS011;4904;49.152;11.004;2023-05-07T02:29:06;4.55;;;2.92;;
9729;SDS011;4904;49.152;11.004;2023-05-07T02:31:35;5.55;;;2.60;;
9729;SDS011;4904;49.152;11.004;2023-05-07T02:34:01;2.92;;;2.72;;
9729;SDS011;4904;49.152;11.004;2023-05-07T02:36:28;2.72;;;2.53;;
9729;SDS011;4904;49.152;11.004;2023-05-07T02:38:55;4.22;;;2.90;;
9729;SDS011;4904;49.152;11.004;2023-05-07T02:41:22;3.25;;;2.70;;
9729;SDS011;4904;49.152;11.004;2023-05-07T02:43:49;3.97;;;2.78;;
9729;SDS011;4904;49.152;11.004;2023-05-07T02:46:16;3.15;;;2.85;;
9729;SDS011;4904;49.152;11.004;2023-05-07T02:48:44;3.33;;;3.03;;
9729;SDS011;4904;49.152;11.004;2023-05-07T02:51:11;4.18;;;2.78;;
9729;SDS011;4904;49.152;11.004;2023-05-07T02:53:37;3.10;;;2.80;;
9729;SDS011;4904;49.152;11.004;2023-05-07T02:56:04;3.42;;;2.95;;
9729;SDS011;4904;49.152;11.004;2023-05-07T02:58:32;2.90;;;2.70;;
9729;SDS011;4904;49.152;11.004;2023-05-07T03:00:58;2.95;;;2.67;;
9729;SDS011;4904;49.152;11.004;2023-05-07T03:03:25;4.35;;;2.88;;
9729;SDS011;4904;49.152;11.004;2023-05-07T03:05:54;2.97;;;2.72;;
9729;SDS011;4904;49.152;11.004;2023-05-07T03:08:20;3.33;;;3.03;;
9729;SDS011;4904;49.152;11.004;2023-05-07T03:10:47;2.67;;;2.47;;
9729;SDS011;4904;49.152;11.004;2023-05-07T03:13:14;2.75;;;2.55;;
9729;SDS011;4904;49.152;11.004;2023-05-07T03:15:41;3.10;;;2.85;;
9729;SDS011;4904;49.152;11.004;2023-05-07T03:18:08;3.25;;;2.50;;
9729;SDS011;4904;49.152;11.004;2023-05-07T03:20:35;2.65;;;2.45;;
9729;SDS011;4904;49.152;11.004;2023-05-07T03:23:03;2.70;;;2.50;;
9729;SDS011;4904;49.152;11.004;2023-05-07T03:25:31;3.55;;;2.92;;
9729;SDS011;4904;49.152;11.004;2023-05-07T03:27:58;3.08;;;2.88;;
9729;SDS011;4904;49.152;11.004;2023-05-07T03:30:25;3.78;;;2.60;;
9729;SDS011;4904;49.152;11.004;2023-05-07T03:32:52;3.00;;;2.80;;
9729;SDS011;4904;49.152;11.004;2023-05-07T03:35:19;4.07;;;2.70;;
9729;SDS011;4904;49.152;11.004;2023-05-07T03:37:46;3.38;;;3.00;;
9729;SDS011;4904;49.152;11.004;2023-05-07T03:40:14;3.95;;;2.70;;
9729;SDS011;4904;49.152;11.004;2023-05-07T03:42:41;3.85;;;3.13;;
9729;SDS011;4904;49.152;11.004;2023-05-07T03:45:08;2.90;;;2.67;;
9729;SDS011;4904;49.152;11.004;2023-05-07T03:47:35;5.13;;;3.20;;
9729;SDS011;4904;49.152;11.004;2023-05-07T03:50:02;3.20;;;2.90;;
9729;SDS011;4904;49.152;11.004;2023-05-07T03:52:30;4.38;;;2.90;;
9729;SDS011;4904;49.152;11.004;2023-05-07T03:54:56;2.95;;;2.63;;
9729;SDS011;4904;49.152;11.004;2023-05-07T03:57:25;4.43;;;3.00;;
9729;SDS011;4904;49.152;11.004;2023-05-07T03:59:51;3.85;;;2.55;;
9729;SDS011;4904;49.152;11.004;2023-05-07T04:02:18;6.30;;;2.65;;
9729;SDS011;4904;49.152;11.004;2023-05-07T04:04:45;3.63;;;2.60;;
9729;SDS011;4904;49.152;11.004;2023-05-07T04:07:14;3.10;;;2.83;;
9729;SDS011;4904;49.152;11.004;2023-05-07T04:09:41;3.20;;;2.83;;
9729;SDS011;4904;49.152;11.004;2023-05-07T04:12:08;3.70;;;2.75;;
9729;SDS011;4904;49.152;11.004;2023-05-07T04:14:36;2.72;;;2.53;;
9729;SDS011;4904;49.152;11.004;2023-05-07T04:17:03;3.55;;;2.97;;
9729;SDS011;4904;49.152;11.004;2023-05-07T04:19:32;2.83;;;2.60;;
9729;SDS011;4904;49.152;11.004;2023-05-07T04:21:59;3.13;;;2.83;;
9729;SDS011;4904;49.152;11.004;2023-05-07T04:24:26;3.65;;;2.78;;
9729;SDS011;4904;49.152;11.004;2023-05-07T04:26:53;3.35;;;2.72;;
9729;SDS011;4904;49.152;11.004;2023-05-07T04:29:20;3.10;;;2.90;;
9729;SDS011;4904;49.152;11.004;2023-05-07T04:31:48;6.80;;;3.28;;
9729;SDS011;4904;49.152;11.004;2023-05-07T04:34:15;3.83;;;3.53;;
9729;SDS011;4904;49.152;11.004;2023-05-07T04:36:42;3.83;;;2.72;;
9729;SDS011;4904;49.152;11.004;2023-05-07T04:39:08;4.05;;;3.17;;
9729;SDS011;4904;49.152;11.004;2023-05-07T04:41:35;3.05;;;2.80;;
9729;SDS011;4904;49.152;11.004;2023-05-07T04:44:02;4.15;;;3.40;;
9729;SDS011;4904;49.152;11.004;2023-05-07T04:46:31;3.67;;;3.30;;
9729;SDS011;4904;49.152;11.004;2023-05-07T04:48:59;4.50;;;2.95;;
9729;SDS011;4904;49.152;11.004;2023-05-07T04:51:25;3.42;;;3.15;;
9729;SDS011;4904;49.152;11.004;2023-05-07T04:53:53;3.40;;;3.10;;
9729;SDS011;4904;49.152;11.004;2023-05-07T04:56:19;3.20;;;3.00;;
9729;SDS011;4904;49.152;11.004;2023-05-07T04:58:46;3.30;;;3.10;;
9729;SDS011;4904;49.152;11.004;2023-05-07T05:01:13;4.28;;;2.70;;
9729;SDS011;4904;49.152;11.004;2023-05-07T05:03:40;2.90;;;2.70;;
9729;SDS011;4904;49.152;11.004;2023-05-07T05:06:09;5.03;;;3.00;;
9729;SDS011;4904;49.152;11.004;2023-05-07T05:08:36;4.00;;;3.40;;
9729;SDS011;4904;49.152;11.004;2023-05-07T05:11:03;3.30;;;3.03;;
9729;SDS011;4904;49.152;11.004;2023-05-07T05:13:30;4.25;;;3.40;;
9729;SDS011;4904;49.152;11.004;2023-05-07T05:15:57;3.22;;;2.92;;
9729;SDS011;4904;49.152;11.004;2023-05-07T05:18:23;3.72;;;3.42;;
9729;SDS011;4904;49.152;11.004;2023-05-07T05:20:51;4.32;;;3.30;;
9729;SDS011;4904;49.152;11.004;2023-05-07T05:23:19;3.92;;;3.08;;
9729;SDS011;4904;49.152;11.004;2023-05-07T05:25:46;4.20;;;3.45;;
9729;SDS011;4904;49.152;11.004;2023-05-07T05:28:13;4.15;;;3.25;;
9729;SDS011;4904;49.152;11.004;2023-05-07T05:30:39;4.15;;;3.13;;
9729;SDS011;4904;49.152;11.004;2023-05-07T05:33:06;3.97;;;3.33;;
9729;SDS011;4904;49.152;11.004;2023-05-07T05:35:33;3.40;;;3.10;;
9729;SDS011;4904;49.152;11.004;2023-05-07T05:38:00;3.50;;;3.20;;
9729;SDS011;4904;49.152;11.004;2023-05-07T05:40:28;3.80;;;3.50;;
9729;SDS011;4904;49.152;11.004;2023-05-07T05:42:55;3.38;;;3.08;;
9729;SDS011;4904;49.152;11.004;2023-05-07T05:45:22;3.70;;;3.40;;
9729;SDS011;4904;49.152;11.004;2023-05-07T05:47:49;4.68;;;4.28;;
9729;SDS011;4904;49.152;11.004;2023-05-07T05:50:16;22.75;;;15.75;;
9729;SDS011;4904;49.152;11.004;2023-05-07T05:52:43;14.65;;;10.88;;
9729;SDS011;4904;49.152;11.004;2023-05-07T05:55:10;6.72;;;6.13;;
9729;SDS011;4904;49.152;11.004;2023-05-07T05:57:38;6.68;;;5.90;;
9729;SDS011;4904;49.152;11.004;2023-05-07T06:00:05;6.60;;;5.00;;
9729;SDS011;4904;49.152;11.004;2023-05-07T06:02:33;4.88;;;4.40;;
9729;SDS011;4904;49.152;11.004;2023-05-07T06:05:00;6.95;;;5.75;;
9729;SDS011;4904;49.152;11.004;2023-05-07T06:07:27;5.93;;;5.43;;
9729;SDS011;4904;49.152;11.004;2023-05-07T06:09:54;8.63;;;7.72;;
9729;SDS011;4904;49.152;11.004;2023-05-07T06:12:21;7.75;;;6.53;;
9729;SDS011;4904;49.152;11.004;2023-05-07T06:14:49;7.70;;;5.35;;
9729;SDS011;4904;49.152;11.004;2023-05-07T06:17:16;5.25;;;4.75;;
9729;SDS011;4904;49.152;11.004;2023-05-07T06:19:43;6.85;;;4.90;;
9729;SDS011;4904;49.152;11.004;2023-05-07T06:22:10;7.88;;;5.20;;
9729;SDS011;4904;49.152;11.004;2023-05-07T06:24:36;5.20;;;4.80;;
9729;SDS011;4904;49.152;11.004;2023-05-07T06:27:03;5.47;;;4.90;;
9729;SDS011;4904;49.152;11.004;2023-05-07T06:29:30;6.20;;;5.60;;
9729;SDS011;4904;49.152;11.004;2023-05-07T06:32:07;5.63;;;5.13;;
9729;SDS011;4904;49.152;11.004;2023-05-07T06:34:34;7.40;;;5.95;;
9729;SDS011;4904;49.152;11.004;2023-05-07T06:37:01;8.52;;;5.35;;
9729;SDS011;4904;49.152;11.004;2023-05-07T06:39:28;5.95;;;5.45;;
9729;SDS011;4904;49.152;11.004;2023-05-07T06:41:55;6.03;;;5.43;;
9729;SDS011;4904;49.152;11.004;2023-05-07T06:44:22;6.47;;;5.43;;
9729;SDS011;4904;49.152;11.004;2023-05-07T06:46:49;6.50;;;5.90;;
9729;SDS011;4904;49.152;11.004;2023-05-07T06:49:17;5.78;;;5.28;;
9729;SDS011;4904;49.152;11.004;2023-05-07T06:51:44;6.25;;;5.63;;
9729;SDS011;4904;49.152;11.004;2023-05-07T06:54:11;6.25;;;5.65;;
9729;SDS011;4904;49.152;11.004;2023-05-07T06:56:38;5.03;;;4.63;;
9729;SDS011;4904;49.152;11.004;2023-05-07T06:59:05;6.35;;;5.00;;
9729;SDS011;4904;49.152;11.004;2023-05-07T07:01:32;7.13;;;5.43;;
9729;SDS011;4904;49.152;11.004;2023-05-07T07:03:59;5.60;;;5.10;;
9729;SDS011;4904;49.152;11.004;2023-05-07T07:06:27;6.57;;;5.60;;
9729;SDS011;4904;49.152;11.004;2023-05-07T07:08:56;6.18;;;5.55;;
9729;SDS011;4904;49.152;11.004;2023-05-07T07:11:23;6.60;;;5.38;;
9729;SDS011;4904;49.152;11.004;2023-05-07T07:13:50;6.10;;;5.60;;
9729;SDS011;4904;49.152;11.004;2023-05-07T07:16:19;6.40;;;5.50;;
9729;SDS011;4904;49.152;11.004;2023-05-07T07:18:46;5.28;;;4.90;;
9729;SDS011;4904;49.152;11.004;2023-05-07T07:21:13;5.55;;;4.75;;
9729;SDS011;4904;49.152;11.004;2023-05-07T07:23:41;5.40;;;4.90;;
9729;SDS011;4904;49.152;11.004;2023-05-07T07:26:08;5.70;;;5.20;;
9729;SDS011;4904;49.152;11.004;2023-05-07T07:28:35;5.43;;;4.97;;
9729;SDS011;4904;49.152;11.004;2023-05-07T07:31:07;5.50;;;5.00;;
9729;SDS011;4904;49.152;11.004;2023-05-07T07:33:34;5.38;;;4.70;;
9729;SDS011;4904;49.152;11.004;2023-05-07T07:36:01;7.10;;;5.40;;
9729;SDS011;4904;49.152;11.004;2023-05-07T07:38:28;5.13;;;4.68;;
9729;SDS011;4904;49.152;11.004;2023-05-07T07:40:57;5.60;;;5.07;;
9729;SDS011;4904;49.152;11.004;2023-05-07T07:43:23;5.07;;;4.57;;
9729;SDS011;4904;49.152;11.004;2023-05-07T07:45:50;16.20;;;13.45;;
9729;SDS011;4904;49.152;11.004;2023-05-07T07:48:17;6.78;;;5.03;;
9729;SDS011;4904;49.152;11.004;2023-05-07T07:50:44;4.93;;;4.53;;
9729;SDS011;4904;49.152;11.004;2023-05-07T07:53:11;5.03;;;4.63;;
9729;SDS011;4904;49.152;11.004;2023-05-07T07:55:38;4.80;;;4.40;;
9729;SDS011;4904;49.152;11.004;2023-05-07T07:58:07;4.78;;;4.38;;
9729;SDS011;4904;49.152;11.004;2023-05-07T08:00:34;5.03;;;4.57;;
9729;SDS011;4904;49.152;11.004;2023-05-07T08:03:00;4.80;;;4.40;;
9729;SDS011;4904;49.152;11.004;2023-05-07T08:05:28;4.78;;;4.45;;
9729;SDS011;4904;49.152;11.004;2023-05-07T08:07:55;5.05;;;4.55;;
9729;SDS011;4904;49.152;11.004;2023-05-07T08:10:22;5.10;;;4.70;;
9729;SDS011;4904;49.152;11.004;2023-05-07T08:12:49;4.90;;;4.50;;
9729;SDS011;4904;49.152;11.004;2023-05-07T08:15:17;4.75;;;4.35;;
9729;SDS011;4904;49.152;11.004;2023-05-07T08:17:44;5.05;;;4.57;;
9729;SDS011;4904;49.152;11.004;2023-05-07T08:20:11;5.05;;;4.65;;
9729;SDS011;4904;49.152;11.004;2023-05-07T08:22:38;5.15;;;4.68;;
9729;SDS011;4904;49.152;11.004;2023-05-07T08:25:05;5.72;;;5.20;;
9729;SDS011;4904;49.152;11.004;2023-05-07T08:27:32;6.35;;;4.88;;
9729;SDS011;4904;49.152;11.004;2023-05-07T08:29:59;5.45;;;4.95;;
9729;SDS011;4904;49.152;11.004;2023-05-07T08:32:27;5.10;;;4.70;;
9729;SDS011;4904;49.152;11.004;2023-05-07T08:34:54;4.90;;;4.50;;
9729;SDS011;4904;49.152;11.004;2023-05-07T08:37:21;5.78;;;4.57;;
9729;SDS011;4904;49.152;11.004;2023-05-07T08:39:48;4.75;;;4.35;;
9729;SDS011;4904;49.152;11.004;2023-05-07T08:42:15;4.93;;;4.45;;
9729;SDS011;4904;49.152;11.004;2023-05-07T08:44:44;4.63;;;3.80;;
9729;SDS011;4904;49.152;11.004;2023-05-07T08:47:12;4.15;;;3.85;;
9729;SDS011;4904;49.152;11.004;2023-05-07T08:49:41;6.55;;;4.57;;
9729;SDS011;4904;49.152;11.004;2023-05-07T08:52:08;4.20;;;3.80;;
9729;SDS011;4904;49.152;11.004;2023-05-07T08:54:36;4.63;;;4.05;;
9729;SDS011;4904;49.152;11.004;2023-05-07T08:57:03;6.60;;;4.32;;
9729;SDS011;4904;49.152;11.004;2023-05-07T08:59:30;4.43;;;4.10;;
9729;SDS011;4904;49.152;11.004;2023-05-07T09:01:57;4.45;;;4.07;;
9729;SDS011;4904;49.152;11.004;2023-05-07T09:04:24;4.60;;;4.20;;
9729;SDS011;4904;49.152;11.004;2023-05-07T09:06:52;4.88;;;4.47;;
9729;SDS011;4904;49.152;11.004;2023-05-07T09:09:19;4.68;;;4.28;;
9729;SDS011;4904;49.152;11.004;2023-05-07T09:11:48;4.80;;;4.35;;
9729;SDS011;4904;49.152;11.004;2023-05-07T09:14:15;5.03;;;4.60;;
9729;SDS011;4904;49.152;11.004;2023-05-07T09:16:42;4.72;;;4.25;;
9729;SDS011;4904;49.152;11.004;2023-05-07T09:19:09;4.57;;;4.18;;
9729;SDS011;4904;49.152;11.004;2023-05-07T09:21:36;5.28;;;4.82;;
9729;SDS011;4904;49.152;11.004;2023-05-07T09:24:05;5.03;;;4.63;;
9729;SDS011;4904;49.152;11.004;2023-05-07T09:26:32;4.25;;;3.95;;
9729;SDS011;4904;49.152;11.004;2023-05-07T09:28:59;4.28;;;3.90;;
9729;SDS011;4904;49.152;11.004;2023-05-07T09:31:26;5.00;;;4.60;;
9729;SDS011;4904;49.152;11.004;2023-05-07T09:33:53;5.07;;;4.68;;
9729;SDS011;4904;49.152;11.004;2023-05-07T09:36:21;5.03;;;4.60;;
9729;SDS011;4904;49.152;11.004;2023-05-07T09:38:48;5.13;;;4.63;;
9729;SDS011;4904;49.152;11.004;2023-05-07T09:41:17;6.80;;;4.50;;
9729;SDS011;4904;49.152;11.004;2023-05-07T09:43:46;5.13;;;4.28;;
9729;SDS011;4904;49.152;11.004;2023-05-07T09:46:19;4.45;;;4.05;;
9729;SDS011;4904;49.152;11.004;2023-05-07T09:48:52;4.63;;;4.22;;
9729;SDS011;4904;49.152;11.004;2023-05-07T09:51:24;7.20;;;4.00;;
9729;SDS011;4904;49.152;11.004;2023-05-07T09:53:55;4.07;;;3.78;;
9729;SDS011;4904;49.152;11.004;2023-05-07T09:56:26;4.65;;;4.22;;
9729;SDS011;4904;49.152;11.004;2023-05-07T09:58:53;4.45;;;4.00;;
9729;SDS011;4904;49.152;11.004;2023-05-07T10:01:22;5.38;;;4.40;;
9729;SDS011;4904;49.152;11.004;2023-05-07T10:03:51;5.97;;;4.50;;
9729;SDS011;4904;49.152;11.004;2023-05-07T10:06:19;7.30;;;4.20;;
9729;SDS011;4904;49.152;11.004;2023-05-07T10:08:46;5.25;;;3.88;;
9729;SDS011;4904;49.152;11.004;2023-05-07T10:11:14;3.70;;;3.40;;
9729;SDS011;4904;49.152;11.004;2023-05-07T10:13:43;4.03;;;3.70;;
9729;SDS011;4904;49.152;11.004;2023-05-07T10:16:12;3.90;;;3.60;;
9729;SDS011;4904;49.152;11.004;2023-05-07T10:18:40;4.00;;;3.70;;
9729;SDS011;4904;49.152;11.004;2023-05-07T10:21:07;4.78;;;3.75;;
9729;SDS011;4904;49.152;11.004;2023-05-07T10:23:37;4.32;;;4.00;;
9729;SDS011;4904;49.152;11.004;2023-05-07T10:26:06;4.20;;;3.88;;
9729;SDS011;4904;49.152;11.004;2023-05-07T10:28:36;3.95;;;3.65;;
9729;SDS011;4904;49.152;11.004;2023-05-07T10:31:14;3.95;;;3.55;;
9729;SDS011;4904;49.152;11.004;2023-05-07T10:33:56;4.15;;;3.67;;
9729;SDS011;4904;49.152;11.004;2023-05-07T10:36:24;3.95;;;3.55;;
9729;SDS011;4904;49.152;11.004;2023-05-07T10:38:51;4.13;;;3.35;;
9729;SDS011;4904;49.152;11.004;2023-05-07T10:41:19;3.90;;;3.50;;
9729;SDS011;4904;49.152;11.004;2023-05-07T10:43:46;3.50;;;3.30;;
9729;SDS011;4904;49.152;11.004;2023-05-07T10:46:16;8.25;;;3.78;;
9729;SDS011;4904;49.152;11.004;2023-05-07T10:51:36;4.97;;;3.85;;
9729;SDS011;4904;49.152;11.004;2023-05-07T10:54:19;4.55;;;4.25;;
9729;SDS011;4904;49.152;11.004;2023-05-07T10:56:52;5.05;;;3.75;;
9729;SDS011;4904;49.152;11.004;2023-05-07T10:59:32;3.63;;;3.33;;
9729;SDS011;4904;49.152;11.004;2023-05-07T11:02:08;3.40;;;3.20;;
9729;SDS011;4904;49.152;11.004;2023-05-07T11:04:36;3.28;;;3.08;;
9729;SDS011;4904;49.152;11.004;2023-05-07T11:10:05;3.40;;;3.10;;
9729;SDS011;4904;49.152;11.004;2023-05-07T11:12:48;2.97;;;2.78;;
9729;SDS011;4904;49.152;11.004;2023-05-07T11:18:08;3.08;;;2.83;;
9729;SDS011;4904;49.152;11.004;2023-05-07T11:20:49;3.10;;;2.50;;
9729;SDS011;4904;49.152;11.004;2023-05-07T11:26:41;2.72;;;2.53;;
9729;SDS011;4904;49.152;11.004;2023-05-07T11:29:14;2.60;;;2.30;;
9729;SDS011;4904;49.152;11.004;2023-05-07T11:31:42;3.28;;;2.40;;
9729;SDS011;4904;49.152;11.004;2023-05-07T11:34:11;2.92;;;2.65;;
9729;SDS011;4904;49.152;11.004;2023-05-07T11:36:41;2.65;;;2.45;;
9729;SDS011;4904;49.152;11.004;2023-05-07T11:39:28;2.53;;;2.33;;
9729;SDS011;4904;49.152;11.004;2023-05-07T11:41:58;2.65;;;2.40;;
9729;SDS011;4904;49.152;11.004;2023-05-07T11:44:24;2.80;;;2.50;;
9729;SDS011;4904;49.152;11.004;2023-05-07T11:46:51;3.38;;;3.08;;
9729;SDS011;4904;49.152;11.004;2023-05-07T11:49:20;3.20;;;3.00;;
9729;SDS011;4904;49.152;11.004;2023-05-07T11:51:47;2.83;;;2.63;;
9729;SDS011;4904;49.152;11.004;2023-05-07T11:54:17;2.92;;;2.63;;
9729;SDS011;4904;49.152;11.004;2023-05-07T11:56:44;4.00;;;2.63;;
9729;SDS011;4904;49.152;11.004;2023-05-07T11:59:17;3.67;;;2.60;;
9729;SDS011;4904;49.152;11.004;2023-05-07T12:01:45;2.58;;;2.38;;
9729;SDS011;4904;49.152;11.004;2023-05-07T12:04:12;4.00;;;2.35;;
9729;SDS011;4904;49.152;11.004;2023-05-07T12:06:41;3.08;;;2.38;;
9729;SDS011;4904;49.152;11.004;2023-05-07T12:09:07;3.08;;;2.63;;
9729;SDS011;4904;49.152;11.004;2023-05-07T12:11:36;4.35;;;2.70;;
9729;SDS011;4904;49.152;11.004;2023-05-07T12:14:05;2.67;;;2.45;;
9729;SDS011;4904;49.152;11.004;2023-05-07T12:16:32;3.67;;;2.00;;
9729;SDS011;4904;49.152;11.004;2023-05-07T12:18:59;2.55;;;2.35;;
9729;SDS011;4904;49.152;11.004;2023-05-07T12:21:26;2.95;;;2.72;;
9729;SDS011;4904;49.152;11.004;2023-05-07T12:23:55;3.38;;;2.30;;
9729;SDS011;4904;49.152;11.004;2023-05-07T12:26:22;2.42;;;2.28;;
9729;SDS011;4904;49.152;11.004;2023-05-07T12:28:50;2.53;;;2.33;;
9729;SDS011;4904;49.152;11.004;2023-05-07T12:31:17;2.90;;;2.28;;
9729;SDS011;4904;49.152;11.004;2023-05-07T12:33:44;3.10;;;2.30;;
9729;SDS011;4904;49.152;11.004;2023-05-07T12:36:12;2.35;;;2.15;;
9729;SDS011;4904;49.152;11.004;2023-05-07T12:38:39;4.88;;;2.33;;
9729;SDS011;4904;49.152;11.004;2023-05-07T12:41:08;3.47;;;1.98;;
9729;SDS011;4904;49.152;11.004;2023-05-07T12:43:37;2.22;;;2.03;;
9729;SDS011;4904;49.152;11.004;2023-05-07T12:46:05;4.25;;;2.50;;
9729;SDS011;4904;49.152;11.004;2023-05-07T12:48:33;3.97;;;2.30;;
9729;SDS011;4904;49.152;11.004;2023-05-07T12:51:01;2.40;;;2.20;;
9729;SDS011;4904;49.152;11.004;2023-05-07T12:53:29;2.65;;;2.40;;
9729;SDS011;4904;49.152;11.004;2023-05-07T12:55:57;2.25;;;2.03;;
9729;SDS011;4904;49.152;11.004;2023-05-07T12:58:26;2.58;;;2.38;;
9729;SDS011;4904;49.152;11.004;2023-05-07T13:00:54;3.13;;;1.95;;
9729;SDS011;4904;49.152;11.004;2023-05-07T13:03:24;2.95;;;2.33;;
9729;SDS011;4904;49.152;11.004;2023-05-07T13:05:55;2.45;;;2.10;;
9729;SDS011;4904;49.152;11.004;2023-05-07T13:08:24;2.72;;;2.33;;
9729;SDS011;4904;49.152;11.004;2023-05-07T13:10:56;3.30;;;2.20;;
9729;SDS011;4904;49.152;11.004;2023-05-07T13:13:25;2.55;;;2.35;;
9729;SDS011;4904;49.152;11.004;2023-05-07T13:15:52;4.47;;;2.50;;
9729;SDS011;4904;49.152;11.004;2023-05-07T13:18:19;2.72;;;2.47;;
9729;SDS011;4904;49.152;11.004;2023-05-07T13:20:46;2.08;;;1.88;;
9729;SDS011;4904;49.152;11.004;2023-05-07T13:23:13;2.58;;;2.40;;
9729;SDS011;4904;49.152;11.004;2023-05-07T13:25:40;2.58;;;2.38;;
9729;SDS011;4904;49.152;11.004;2023-05-07T13:28:07;2.67;;;1.92;;
9729;SDS011;4904;49.152;11.004;2023-05-07T13:30:35;2.60;;;2.38;;
9729;SDS011;4904;49.152;11.004;2023-05-07T13:33:02;3.25;;;2.10;;
9729;SDS011;4904;49.152;11.004;2023-05-07T13:35:29;2.30;;;2.10;;
9729;SDS011;4904;49.152;11.004;2023-05-07T13:37:56;2.38;;;2.17;;
9729;SDS011;4904;49.152;11.004;2023-05-07T13:40:23;2.10;;;2.00;;
9729;SDS011;4904;49.152;11.004;2023-05-07T13:42:50;2.45;;;2.17;;
9729;SDS011;4904;49.152;11.004;2023-05-07T13:45:17;2.50;;;2.30;;
9729;SDS011;4904;49.152;11.004;2023-05-07T13:47:46;2.40;;;2.20;;
9729;SDS011;4904;49.152;11.004;2023-05-07T13:50:14;3.65;;;1.83;;
9729;SDS011;4904;49.152;11.004;2023-05-07T13:52:42;2.20;;;2.00;;
9729;SDS011;4904;49.152;11.004;2023-05-07T13:55:15;3.63;;;2.08;;
9729;SDS011;4904;49.152;11.004;2023-05-07T13:57:42;2.65;;;2.30;;
9729;SDS011;4904;49.152;11.004;2023-05-07T14:00:09;1.80;;;1.70;;
9729;SDS011;4904;49.152;11.004;2023-05-07T14:02:37;2.40;;;2.20;;
9729;SDS011;4904;49.152;11.004;2023-05-07T14:05:06;2.25;;;2.05;;
9729;SDS011;4904;49.152;11.004;2023-05-07T14:07:34;2.75;;;2.47;;
9729;SDS011;4904;49.152;11.004;2023-05-07T14:10:01;2.95;;;1.92;;
9729;SDS011;4904;49.152;11.004;2023-05-07T14:12:27;2.88;;;1.95;;
9729;SDS011;4904;49.152;11.004;2023-05-07T14:14:54;2.78;;;2.17;;
9729;SDS011;4904;49.152;11.004;2023-05-07T14:17:21;2.30;;;2.10;;
9729;SDS011;4904;49.152;11.004;2023-05-07T14:19:50;2.38;;;2.17;;
9729;SDS011;4904;49.152;11.004;2023-05-07T14:22:19;2.83;;;2.05;;
9729;SDS011;4904;49.152;11.004;2023-05-07T14:24:46;2.75;;;2.10;;
9729;SDS011;4904;49.152;11.004;2023-05-07T14:27:13;2.50;;;2.20;;
9729;SDS011;4904;49.152;11.004;2023-05-07T14:29:41;2.80;;;2.10;;
9729;SDS011;4904;49.152;11.004;2023-05-07T14:32:08;1.98;;;1.88;;
9729;SDS011;4904;49.152;11.004;2023-05-07T14:34:35;2.03;;;1.92;;
9729;SDS011;4904;49.152;11.004;2023-05-07T14:37:02;2.00;;;1.90;;
9729;SDS011;4904;49.152;11.004;2023-05-07T14:39:31;2.15;;;1.95;;
9729;SDS011;4904;49.152;11.004;2023-05-07T14:41:57;2.00;;;1.90;;
9729;SDS011;4904;49.152;11.004;2023-05-07T14:44:24;3.35;;;1.95;;
9729;SDS011;4904;49.152;11.004;2023-05-07T14:46:51;2.88;;;1.98;;
9729;SDS011;4904;49.152;11.004;2023-05-07T14:49:18;2.10;;;2.00;;
9729;SDS011;4904;49.152;11.004;2023-05-07T14:51:45;1.80;;;1.70;;
9729;SDS011;4904;49.152;11.004;2023-05-07T14:54:13;2.10;;;2.00;;
9729;SDS011;4904;49.152;11.004;2023-05-07T14:56:42;2.30;;;2.08;;
9729;SDS011;4904;49.152;11.004;2023-05-07T14:59:09;2.80;;;2.00;;
9729;SDS011;4904;49.152;11.004;2023-05-07T15:01:36;1.88;;;1.77;;
9729;SDS011;4904;49.152;11.004;2023-05-07T15:04:05;2.20;;;2.00;;
9729;SDS011;4904;49.152;11.004;2023-05-07T15:06:32;1.70;;;1.60;;
9729;SDS011;4904;49.152;11.004;2023-05-07T15:08:59;2.28;;;2.08;;
9729;SDS011;4904;49.152;11.004;2023-05-07T15:11:26;1.80;;;1.60;;
9729;SDS011;4904;49.152;11.004;2023-05-07T15:13:55;1.95;;;1.85;;
9729;SDS011;4904;49.152;11.004;2023-05-07T15:16:22;2.22;;;2.03;;
9729;SDS011;4904;49.152;11.004;2023-05-07T15:18:49;2.15;;;1.50;;